createdAt,value
2023-04-12T00:00:28.111Z,60.00
2023-04-12T00:02:54.833Z,60.71
2023-04-12T00:05:22.892Z,60.95
2023-04-12T00:07:53.112Z,59.93
2023-04-12T00:10:19.826Z,59.99
2023-04-12T00:12:46.930Z,60.74
2023-04-12T00:15:17.122Z,61.09
2023-04-12T00:17:44.576Z,61.54
2023-04-12T00:20:12.706Z,61.59
2023-04-12T00:22:41.473Z,61.97
2023-04-12T00:25:08.968Z,61.66
2023-04-12T00:27:36.060Z,60.79
2023-04-12T00:30:03.818Z,61.90
2023-04-12T00:32:30.327Z,61.92
2023-04-12T00:34:56.942Z,60.79
2023-04-12T00:37:23.418Z,60.60
2023-04-12T00:39:49.945Z,60.22
2023-04-12T00:42:16.692Z,59.72
2023-04-12T00:44:43.191Z,59.58
2023-04-12T00:47:09.638Z,58.15
2023-04-12T00:49:36.113Z,58.88
2023-04-12T00:52:08.602Z,58.99
2023-04-12T00:54:36.108Z,58.47
2023-04-12T00:57:03.510Z,58.70
2023-04-12T00:59:30.007Z,58.04
2023-04-12T01:01:57.875Z,58.04
2023-04-12T01:04:26.328Z,57.29
2023-04-12T01:07:16.507Z,57.89
2023-04-12T01:09:47.536Z,57.26
2023-04-12T01:12:23.021Z,57.10
2023-04-12T01:15:02.528Z,57.46
2023-04-12T01:17:37.865Z,56.32
2023-04-12T01:20:14.465Z,56.58
2023-04-12T01:23:18.931Z,55.82
2023-04-12T01:25:48.172Z,56.41
2023-04-12T01:28:20.345Z,56.25
2023-04-12T01:30:50.555Z,56.56
2023-04-12T01:33:18.380Z,56.06
2023-04-12T01:35:46.902Z,56.78
2023-04-12T01:38:13.835Z,55.33
2023-04-12T01:40:43.116Z,57.09
2023-04-12T01:43:12.186Z,57.90
2023-04-12T01:45:39.447Z,58.47
2023-04-12T01:48:11.008Z,57.88
2023-04-12T01:50:56.033Z,58.95
2023-04-12T01:53:25.524Z,57.74
2023-04-12T01:55:55.613Z,59.30
2023-04-12T01:58:22.775Z,59.83
2023-04-12T02:00:50.733Z,58.92
2023-04-12T02:03:21.871Z,57.96
2023-04-12T02:05:51.659Z,58.90
2023-04-12T02:08:18.221Z,58.11
2023-04-12T02:10:44.635Z,57.70
2023-04-12T02:13:11.116Z,57.37
2023-04-12T02:15:38.482Z,55.86
2023-04-12T02:18:05.036Z,55.69
2023-04-12T02:20:31.570Z,56.62
2023-04-12T02:22:58.071Z,56.85
2023-04-12T02:25:24.498Z,55.82
2023-04-12T02:27:51.219Z,56.52
2023-04-12T02:30:17.786Z,56.23
2023-04-12T02:32:45.429Z,56.99
2023-04-12T02:35:13.406Z,57.36
2023-04-12T02:37:40.277Z,56.10
2023-04-12T02:40:10.118Z,56.67
2023-04-12T02:42:36.744Z,56.36
2023-04-12T02:45:04.259Z,55.72
2023-04-12T02:47:30.875Z,55.90
2023-04-12T02:49:57.638Z,55.06
2023-04-12T02:52:24.106Z,55.62
2023-04-12T02:54:51.287Z,55.94
2023-04-12T02:57:17.806Z,56.46
2023-04-12T02:59:44.208Z,56.89
2023-04-12T03:02:11.500Z,57.23
2023-04-12T03:04:39.922Z,56.92
2023-04-12T03:07:07.003Z,56.81
2023-04-12T03:09:33.466Z,56.53
2023-04-12T03:11:59.973Z,56.95
2023-04-12T03:14:26.415Z,56.69
2023-04-12T03:16:53.502Z,56.91
2023-04-12T03:19:19.913Z,56.01
2023-04-12T03:21:46.491Z,55.41
2023-04-12T03:24:13.825Z,55.38
2023-04-12T03:26:41.611Z,55.32
2023-04-12T03:29:09.582Z,56.66
2023-04-12T03:31:37.565Z,56.05
2023-04-12T03:34:04.094Z,56.43
2023-04-12T03:36:31.264Z,55.88
2023-04-12T03:38:57.693Z,56.23
2023-04-12T03:41:24.157Z,57.60
2023-04-12T03:43:50.674Z,56.48
2023-04-12T03:46:18.009Z,55.97
2023-04-12T03:48:44.543Z,56.64
2023-04-12T03:51:12.144Z,56.78
2023-04-12T03:53:39.266Z,55.10
2023-04-12T03:56:06.128Z,55.72
2023-04-12T03:58:33.920Z,56.08
2023-04-12T04:01:06.035Z,54.85
2023-04-12T04:03:35.050Z,56.87
2023-04-12T04:06:02.616Z,56.81
2023-04-12T04:08:30.136Z,55.46
2023-04-12T04:10:57.181Z,55.22
2023-04-12T04:13:23.694Z,55.14
2023-04-12T04:15:58.876Z,55.42
2023-04-12T04:18:25.322Z,55.34
2023-04-12T04:20:52.134Z,56.60
2023-04-12T04:23:18.521Z,56.24
2023-04-12T04:25:45.332Z,57.76
2023-04-12T04:28:11.782Z,57.77
2023-04-12T04:30:38.903Z,56.74
2023-04-12T04:33:07.086Z,57.05
2023-04-12T04:35:33.749Z,57.93
2023-04-12T04:38:02.765Z,55.77
2023-04-12T04:40:29.196Z,57.93
2023-04-12T04:42:56.108Z,56.65
2023-04-12T04:45:26.487Z,56.89
2023-04-12T04:47:53.782Z,57.26
2023-04-12T04:50:24.764Z,56.26
2023-04-12T04:52:51.498Z,56.21
2023-04-12T04:55:18.294Z,56.85
2023-04-12T04:57:45.377Z,56.91
2023-04-12T05:00:13.346Z,56.37
2023-04-12T05:02:43.659Z,55.83
2023-04-12T05:05:12.550Z,55.33
2023-04-12T05:07:39.317Z,55.80
2023-04-12T05:10:06.320Z,56.92
2023-04-12T05:12:33.015Z,56.68
2023-04-12T05:15:11.076Z,56.92
2023-04-12T05:17:38.438Z,56.62
2023-04-12T05:20:07.857Z,56.24
2023-04-12T05:22:35.206Z,57.13
2023-04-12T05:25:03.066Z,57.19
2023-04-12T05:27:30.924Z,56.86
2023-04-12T05:29:58.007Z,56.77
2023-04-12T05:32:25.575Z,57.05
2023-04-12T05:34:52.547Z,57.47
2023-04-12T05:37:18.987Z,56.31
2023-04-12T05:39:45.514Z,56.98
2023-04-12T05:42:11.925Z,57.36
2023-04-12T05:44:39.080Z,55.42
2023-04-12T05:47:05.723Z,57.28
2023-04-12T05:49:32.269Z,55.67
2023-04-12T05:51:58.925Z,54.72
2023-04-12T05:54:25.531Z,54.64
2023-04-12T05:56:54.334Z,55.67
2023-04-12T05:59:21.007Z,53.05
2023-04-12T06:04:42.083Z,50.44
2023-04-12T06:07:17.586Z,48.80
2023-04-12T06:09:44.019Z,48.88
2023-04-12T06:12:10.512Z,48.02
2023-04-12T06:14:36.884Z,48.55
2023-04-12T06:17:06.138Z,47.97
2023-04-12T06:19:32.569Z,49.32
2023-04-12T06:21:58.953Z,50.11
2023-04-12T06:25:17.397Z,50.78
2023-04-12T06:28:16.474Z,52.53
2023-04-12T06:30:42.985Z,53.11
2023-04-12T06:33:09.439Z,52.84
2023-04-12T06:35:35.946Z,53.48
2023-04-12T06:38:02.367Z,51.19
2023-04-12T06:40:28.889Z,52.53
2023-04-12T06:42:55.267Z,52.32
2023-04-12T06:45:22.024Z,53.54
2023-04-12T06:48:08.849Z,52.82
2023-04-12T06:51:09.708Z,53.17
2023-04-12T06:53:41.910Z,52.55
2023-04-12T06:56:08.674Z,52.39
2023-04-12T06:58:35.051Z,53.08
2023-04-12T07:01:11.237Z,52.79
2023-04-12T07:03:37.849Z,53.91
2023-04-12T07:06:23.765Z,53.67
2023-04-12T07:09:10.204Z,54.52
2023-04-12T07:11:36.724Z,53.72
2023-04-12T07:14:03.156Z,55.19
2023-04-12T07:16:31.564Z,54.21
2023-04-12T07:18:59.352Z,55.56
2023-04-12T07:21:27.398Z,55.98
2023-04-12T07:23:54.030Z,54.99
2023-04-12T07:26:21.591Z,54.59
2023-04-12T07:28:48.207Z,53.52
2023-04-12T07:31:14.679Z,53.74
2023-04-12T07:33:42.960Z,54.83
2023-04-12T07:36:10.978Z,53.60
2023-04-12T07:38:37.445Z,53.77
2023-04-12T07:41:04.057Z,53.41
2023-04-12T07:43:30.558Z,52.86
2023-04-12T07:45:57.174Z,51.59
2023-04-12T07:48:23.635Z,52.96
2023-04-12T07:50:50.563Z,54.36
2023-04-12T07:53:24.458Z,54.04
2023-04-12T07:55:51.197Z,52.16
2023-04-12T07:58:18.600Z,52.84
2023-04-12T08:00:46.584Z,53.25
2023-04-12T08:03:14.979Z,53.88
2023-04-12T08:05:42.353Z,54.53
2023-04-12T08:08:12.023Z,53.14
2023-04-12T08:10:39.377Z,54.75
2023-04-12T08:13:06.875Z,52.92
2023-04-12T08:15:33.773Z,51.17
2023-04-12T08:18:00.959Z,50.90
2023-04-12T08:20:27.604Z,49.51
2023-04-12T08:22:54.682Z,49.30
2023-04-12T08:25:21.436Z,48.74
2023-04-12T08:27:49.779Z,48.68
2023-04-12T08:30:16.484Z,48.38
2023-04-12T08:32:43.403Z,49.32
2023-04-12T08:35:09.990Z,48.77
2023-04-12T08:37:39.284Z,48.49
2023-04-12T08:40:07.237Z,46.54
2023-04-12T08:42:37.000Z,47.03
2023-04-12T08:45:11.749Z,49.90
2023-04-12T08:47:43.400Z,50.42
2023-04-12T08:50:13.748Z,49.33
2023-04-12T08:52:41.490Z,49.62
2023-04-12T08:55:09.291Z,49.37
2023-04-12T08:57:36.798Z,51.36
2023-04-12T09:00:04.248Z,50.27
2023-04-12T09:02:31.404Z,50.67
2023-04-12T09:04:58.496Z,50.07
2023-04-12T09:07:28.121Z,48.86
2023-04-12T09:09:55.460Z,48.67
2023-04-12T09:12:24.098Z,48.06
2023-04-12T09:15:13.513Z,45.83
2023-04-12T09:17:41.645Z,45.87
2023-04-12T09:20:17.363Z,46.05
2023-04-12T09:22:45.994Z,46.54
2023-04-12T09:25:13.074Z,46.79
2023-04-12T09:27:47.303Z,47.48
2023-04-12T09:30:14.302Z,48.38
2023-04-12T09:32:40.915Z,49.11
2023-04-12T09:35:08.135Z,50.06
2023-04-12T09:37:34.800Z,51.46
2023-04-12T09:40:04.567Z,50.96
2023-04-12T09:42:34.721Z,52.10
2023-04-12T09:45:19.453Z,52.08
2023-04-12T09:47:46.773Z,51.35
2023-04-12T09:50:39.981Z,53.66
2023-04-12T09:53:17.149Z,53.80
2023-04-12T09:55:44.066Z,54.97
2023-04-12T09:58:11.463Z,54.91
2023-04-12T10:00:38.159Z,56.46
2023-04-12T10:03:05.156Z,57.37
2023-04-12T10:05:31.804Z,56.73
2023-04-12T10:07:58.516Z,56.95
2023-04-12T10:10:25.385Z,57.25
2023-04-12T10:12:51.929Z,57.34
2023-04-12T10:15:21.174Z,57.05
2023-04-12T10:17:54.138Z,58.34
2023-04-12T10:20:23.347Z,59.33
2023-04-12T10:22:53.130Z,59.59
2023-04-12T10:25:22.215Z,58.94
2023-04-12T10:27:49.494Z,60.11
2023-04-12T10:30:18.755Z,61.17
2023-04-12T10:32:45.296Z,60.13
2023-04-12T10:35:12.180Z,62.23
2023-04-12T10:38:01.638Z,61.49
2023-04-12T10:40:32.743Z,63.29
2023-04-12T10:43:27.937Z,62.79
2023-04-12T10:45:54.787Z,64.53
2023-04-12T10:48:50.738Z,63.54
2023-04-12T10:51:26.709Z,64.04
2023-04-12T10:54:08.662Z,65.59
2023-04-12T10:56:39.016Z,64.95
2023-04-12T10:59:07.334Z,64.14
2023-04-12T11:01:36.904Z,65.90
2023-04-12T11:04:13.828Z,67.07
2023-04-12T11:06:58.493Z,67.68
2023-04-12T11:09:27.045Z,69.20
2023-04-12T11:12:05.322Z,69.46
2023-04-12T11:14:49.607Z,69.73
2023-04-12T11:17:16.123Z,68.08
2023-04-12T11:19:57.451Z,67.45
2023-04-12T11:22:27.324Z,68.51
2023-04-12T11:24:56.037Z,68.61
2023-04-12T11:27:24.780Z,68.53
2023-04-12T11:29:54.391Z,69.64
2023-04-12T11:32:22.038Z,69.66
2023-04-12T11:34:48.698Z,69.08
2023-04-12T11:37:15.667Z,69.03
2023-04-12T11:39:43.703Z,69.74
2023-04-12T11:42:21.172Z,68.95
2023-04-12T11:44:57.514Z,68.87
2023-04-12T11:47:27.722Z,69.26
2023-04-12T11:49:56.064Z,70.35
2023-04-12T11:52:29.193Z,69.64
2023-04-12T11:54:58.711Z,70.03
2023-04-12T11:57:25.426Z,70.14
2023-04-12T11:59:52.718Z,70.44
2023-04-12T12:02:22.489Z,69.40
2023-04-12T12:04:51.130Z,69.58
2023-04-12T12:07:18.401Z,69.91
2023-04-12T12:09:49.042Z,70.31
2023-04-12T12:12:16.108Z,69.93
2023-04-12T12:14:45.455Z,70.36
2023-04-12T12:17:16.999Z,70.77
2023-04-12T12:19:45.400Z,70.42
2023-04-12T12:22:15.037Z,72.20
2023-04-12T12:24:54.657Z,72.83
2023-04-12T12:27:41.798Z,72.83
2023-04-12T12:30:09.467Z,71.78
2023-04-12T12:32:39.053Z,72.19
2023-04-12T12:35:13.356Z,71.86
2023-04-12T12:37:53.224Z,72.03
2023-04-12T12:40:29.380Z,71.82
2023-04-12T12:42:56.238Z,72.16
2023-04-12T12:45:24.444Z,72.69
2023-04-12T12:48:04.006Z,72.18
2023-04-12T12:50:33.124Z,71.87
2023-04-12T12:53:00.845Z,73.17
2023-04-12T12:55:28.478Z,72.91
2023-04-12T12:58:07.548Z,72.92
2023-04-12T13:00:34.537Z,72.46
2023-04-12T13:03:01.588Z,73.17
2023-04-12T13:05:28.486Z,73.96
2023-04-12T13:07:57.738Z,72.97
2023-04-12T13:10:24.285Z,72.30
2023-04-12T13:12:51.426Z,72.44
2023-04-12T13:15:23.163Z,72.74
2023-04-12T13:17:53.749Z,72.64
2023-04-12T13:20:21.104Z,71.65
2023-04-12T13:22:47.752Z,72.62
2023-04-12T13:25:14.313Z,72.37
2023-04-12T13:27:40.916Z,72.08
2023-04-12T13:30:08.296Z,73.08
2023-04-12T13:32:35.957Z,71.67
2023-04-12T13:35:03.431Z,73.12
2023-04-12T13:37:30.151Z,71.41
2023-04-12T13:39:56.759Z,71.27
2023-04-12T13:42:23.707Z,70.93
2023-04-12T13:44:50.422Z,70.49
2023-04-12T13:47:20.082Z,70.67
2023-04-12T13:49:46.538Z,70.66
2023-04-12T13:52:13.331Z,70.34
2023-04-12T13:54:40.782Z,69.20
2023-04-12T13:57:07.945Z,70.53
2023-04-12T13:59:34.571Z,69.98
2023-04-12T14:02:01.541Z,69.33
2023-04-12T14:04:29.437Z,69.96
2023-04-12T14:06:57.047Z,73.19
2023-04-12T14:09:28.499Z,70.82
2023-04-12T14:11:57.686Z,72.06
2023-04-12T14:14:25.696Z,71.01
2023-04-12T14:16:57.188Z,71.89
2023-04-12T14:19:24.548Z,71.25
2023-04-12T14:21:51.742Z,71.44
2023-04-12T14:24:19.312Z,71.12
2023-04-12T14:26:46.051Z,70.45
2023-04-12T14:29:13.465Z,70.96
2023-04-12T14:31:40.282Z,71.39
2023-04-12T14:34:08.771Z,72.71
2023-04-12T14:36:35.422Z,73.23
2023-04-12T14:39:03.984Z,74.66
2023-04-12T14:41:31.609Z,72.96
2023-04-12T14:44:01.479Z,72.76
2023-04-12T14:46:28.448Z,73.77
2023-04-12T14:48:57.198Z,73.67
2023-04-12T14:51:24.056Z,74.58
2023-04-12T14:53:50.537Z,74.16
2023-04-12T14:56:22.336Z,72.79
2023-04-12T14:58:54.570Z,73.24
2023-04-12T15:01:21.800Z,73.02
2023-04-12T15:03:48.448Z,74.38
2023-04-12T15:06:15.577Z,73.64
2023-04-12T15:08:42.955Z,72.48
2023-04-12T15:11:10.763Z,72.73
2023-04-12T15:13:39.852Z,74.03
2023-04-12T15:16:08.687Z,73.11
2023-04-12T15:18:39.281Z,74.14
2023-04-12T15:21:08.277Z,74.00
2023-04-12T15:23:35.694Z,72.47
2023-04-12T15:26:04.945Z,72.59
2023-04-12T15:28:32.772Z,72.87
2023-04-12T15:30:59.580Z,71.88
2023-04-12T15:33:26.166Z,71.83
2023-04-12T15:35:56.544Z,72.15
2023-04-12T15:38:24.782Z,73.00
2023-04-12T15:41:01.606Z,72.62
2023-04-12T15:43:28.698Z,71.37
2023-04-12T15:45:55.336Z,71.77
2023-04-12T15:48:22.977Z,70.99
2023-04-12T15:50:51.007Z,71.58
2023-04-12T15:53:21.318Z,71.77
2023-04-12T15:55:48.586Z,71.41
2023-04-12T15:58:15.402Z,71.27
2023-04-12T16:00:42.462Z,72.27
2023-04-12T16:03:09.454Z,72.30
2023-04-12T16:05:36.197Z,73.79
2023-04-12T16:08:02.992Z,72.62
2023-04-12T16:10:30.394Z,73.66
2023-04-12T16:12:57.220Z,72.59
2023-04-12T16:15:23.790Z,71.15
2023-04-12T16:17:55.393Z,70.50
2023-04-12T16:20:22.817Z,72.03
2023-04-12T16:22:54.355Z,71.11
2023-04-12T16:25:22.383Z,71.09
2023-04-12T16:27:48.841Z,70.41
2023-04-12T16:30:15.761Z,69.50
2023-04-12T16:32:46.472Z,69.74
2023-04-12T16:35:14.930Z,70.31
2023-04-12T16:37:44.865Z,69.47
2023-04-12T16:40:12.815Z,69.49
2023-04-12T16:42:43.975Z,68.86
2023-04-12T16:45:12.167Z,70.49
2023-04-12T16:47:39.665Z,69.60
2023-04-12T16:50:10.285Z,70.72
2023-04-12T16:52:37.637Z,70.57
2023-04-12T16:55:04.633Z,68.59
2023-04-12T16:57:31.288Z,70.48
2023-04-12T16:59:57.997Z,70.19
2023-04-12T17:02:25.063Z,70.36
2023-04-12T17:04:51.865Z,69.94
2023-04-12T17:07:18.923Z,70.48
2023-04-12T17:09:45.548Z,71.31
2023-04-12T17:12:12.571Z,70.49
2023-04-12T17:14:39.155Z,69.62
2023-04-12T17:17:06.666Z,70.80
2023-04-12T17:19:33.327Z,72.23
2023-04-12T17:21:59.781Z,71.63
2023-04-12T17:24:26.530Z,71.94
2023-04-12T17:26:53.760Z,71.33
2023-04-12T17:29:20.385Z,71.48
2023-04-12T17:31:49.756Z,71.67
2023-04-12T17:34:18.518Z,71.12
2023-04-12T17:36:45.010Z,72.91
2023-04-12T17:39:11.509Z,73.46
2023-04-12T17:41:38.244Z,74.08
2023-04-12T17:44:05.696Z,71.40
2023-04-12T17:46:33.110Z,72.45
2023-04-12T17:49:00.532Z,72.97
2023-04-12T17:51:27.018Z,71.94
2023-04-12T17:53:55.181Z,73.29
2023-04-12T17:56:21.639Z,73.33
2023-04-12T17:58:48.049Z,72.99
2023-04-12T18:01:16.171Z,72.74
2023-04-12T18:03:43.071Z,70.78
2023-04-12T18:06:09.781Z,72.74
2023-04-12T18:08:37.551Z,74.45
2023-04-12T18:11:06.175Z,74.94
2023-04-12T18:13:32.932Z,73.39
2023-04-12T18:15:59.542Z,73.48
2023-04-12T18:18:26.069Z,72.62
2023-04-12T18:20:52.756Z,72.10
2023-04-12T18:23:19.225Z,79.38
2023-04-12T18:25:45.859Z,76.58
2023-04-12T18:28:12.356Z,80.10
2023-04-12T18:30:38.809Z,76.47
2023-04-12T18:33:05.485Z,75.18
2023-04-12T18:35:32.049Z,75.31
2023-04-12T18:37:58.442Z,76.87
2023-04-12T18:40:24.939Z,76.62
2023-04-12T18:42:51.361Z,75.46
2023-04-12T18:45:19.779Z,76.19
2023-04-12T18:47:46.264Z,77.98
2023-04-12T18:50:14.095Z,77.01
2023-04-12T18:52:40.917Z,74.69
2023-04-12T18:55:08.016Z,73.95
2023-04-12T18:57:34.601Z,73.47
2023-04-12T19:00:01.496Z,73.50
2023-04-12T19:02:28.276Z,74.10
2023-04-12T19:04:55.116Z,73.15
2023-04-12T19:07:22.175Z,73.85
2023-04-12T19:09:48.724Z,73.44
2023-04-12T19:12:15.416Z,73.12
2023-04-12T19:14:41.916Z,72.54
2023-04-12T19:17:09.406Z,72.62
2023-04-12T19:19:35.944Z,72.81
2023-04-12T19:22:02.440Z,73.01
2023-04-12T19:24:28.939Z,73.26
2023-04-12T19:26:56.007Z,73.38
2023-04-12T19:29:22.753Z,74.23
2023-04-12T19:31:49.669Z,75.12
2023-04-12T19:34:17.954Z,73.62
2023-04-12T19:36:44.787Z,80.63
2023-04-12T19:39:11.486Z,79.98
2023-04-12T19:41:37.955Z,78.49
2023-04-12T19:44:04.404Z,78.18
2023-04-12T19:46:32.660Z,77.81
2023-04-12T19:48:59.436Z,77.69
2023-04-12T19:51:26.149Z,76.41
2023-04-12T19:53:54.862Z,73.83
2023-04-12T19:56:23.638Z,76.08
2023-04-12T19:58:50.130Z,75.81
2023-04-12T20:01:16.696Z,75.58
2023-04-12T20:03:46.146Z,72.83
2023-04-12T20:06:12.775Z,71.86
2023-04-12T20:08:39.538Z,71.67
2023-04-12T20:11:06.156Z,69.88
2023-04-12T20:13:34.065Z,72.94
2023-04-12T20:16:01.175Z,73.64
2023-04-12T20:18:28.390Z,70.51
2023-04-12T20:20:57.611Z,70.02
2023-04-12T20:23:25.918Z,70.75
2023-04-12T20:25:52.344Z,69.76
2023-04-12T20:28:19.609Z,68.41
2023-04-12T20:30:47.939Z,68.45
2023-04-12T20:33:15.098Z,69.75
2023-04-12T20:35:44.735Z,68.65
2023-04-12T20:38:11.801Z,68.50
2023-04-12T20:40:39.722Z,69.27
2023-04-12T20:43:06.299Z,68.84
2023-04-12T20:45:34.570Z,68.80
2023-04-12T20:48:01.113Z,69.32
2023-04-12T20:50:30.417Z,68.33
2023-04-12T20:52:57.846Z,68.79
2023-04-12T20:55:31.067Z,69.03
2023-04-12T20:57:57.492Z,68.33
2023-04-12T21:00:23.993Z,68.08
2023-04-12T21:02:50.944Z,68.02
2023-04-12T21:05:17.474Z,67.63
2023-04-12T21:07:46.423Z,68.31
2023-04-12T21:10:13.633Z,68.35
2023-04-12T21:12:41.083Z,68.05
2023-04-12T21:15:08.584Z,67.97
2023-04-12T21:17:37.811Z,67.66
2023-04-12T21:20:09.584Z,67.67
2023-04-12T21:22:36.257Z,68.50
2023-04-12T21:25:02.707Z,67.26
2023-04-12T21:27:29.152Z,67.23
2023-04-12T21:29:55.680Z,68.64
2023-04-12T21:32:22.187Z,68.10
2023-04-12T21:34:50.027Z,68.08
2023-04-12T21:37:16.798Z,68.22
2023-04-12T21:39:43.603Z,68.66
2023-04-12T21:42:10.060Z,68.83
2023-04-12T21:44:37.197Z,68.96
2023-04-12T21:47:03.664Z,68.54
2023-04-12T21:49:30.653Z,67.88
2023-04-12T21:51:59.127Z,68.04
2023-04-12T21:54:28.790Z,67.97
2023-04-12T21:56:56.044Z,68.10
2023-04-12T21:59:22.565Z,68.19
2023-04-12T22:01:48.984Z,68.11
2023-04-12T22:04:15.898Z,68.06
2023-04-12T22:06:44.528Z,67.86
2023-04-12T22:09:10.924Z,68.40
2023-04-12T22:11:37.392Z,68.13
2023-04-12T22:14:04.020Z,68.22
2023-04-12T22:16:30.511Z,68.96
2023-04-12T22:18:59.299Z,68.58
2023-04-12T22:21:28.203Z,69.16
2023-04-12T22:23:55.159Z,68.46
2023-04-12T22:26:21.601Z,68.12
2023-04-12T22:28:49.634Z,67.72
2023-04-12T22:31:16.392Z,67.92
2023-04-12T22:33:43.707Z,67.63
2023-04-12T22:36:10.358Z,67.87
2023-04-12T22:38:38.185Z,67.78
2023-04-12T22:41:05.033Z,67.08
2023-04-12T22:43:41.688Z,68.05
2023-04-12T22:46:15.826Z,67.21
2023-04-12T22:48:49.163Z,67.85
2023-04-12T22:51:15.835Z,68.88
2023-04-12T22:53:43.344Z,69.00
2023-04-12T22:56:09.918Z,67.82
2023-04-12T22:58:37.270Z,68.01
2023-04-12T23:01:06.560Z,68.23
2023-04-12T23:03:33.109Z,68.70
2023-04-12T23:06:00.132Z,68.76
2023-04-12T23:08:26.621Z,69.34
2023-04-12T23:10:53.238Z,69.14
2023-04-12T23:13:19.754Z,68.65
2023-04-12T23:15:46.292Z,68.32
2023-04-12T23:18:12.994Z,69.00
2023-04-12T23:20:40.231Z,68.20
2023-04-12T23:23:06.768Z,68.31
2023-04-12T23:25:41.692Z,68.39
2023-04-12T23:28:14.015Z,68.46
2023-04-12T23:30:48.778Z,68.01
2023-04-12T23:33:18.453Z,69.04
2023-04-12T23:35:46.922Z,68.66
2023-04-12T23:38:24.112Z,68.24
2023-04-12T23:40:56.358Z,67.92
2023-04-12T23:43:24.434Z,67.97
2023-04-12T23:45:54.158Z,67.70
2023-04-12T23:48:20.807Z,68.87
2023-04-12T23:50:48.230Z,68.92
2023-04-12T23:53:16.059Z,69.11
2023-04-12T23:55:43.792Z,69.01
2023-04-12T23:58:10.349Z,68.50
